sensor_id;sensor_type;location;lat;lon;timestamp;P1;durP1;ratioP1;P2;durP2;ratioP2
65581;SDS011;52231;40.090;18.348;2023-12-20T00:01:57;88.25;;;47.63;;
65581;SDS011;52231;40.090;18.348;2023-12-20T00:04:27;80.75;;;47.20;;
65581;SDS011;52231;40.090;18.348;2023-12-20T00:06:55;83.72;;;47.45;;
65581;SDS011;52231;40.090;18.348;2023-12-20T00:09:23;89.78;;;49.05;;
65581;SDS011;52231;40.090;18.348;2023-12-20T00:11:52;82.82;;;49.20;;
65581;SDS011;52231;40.090;18.348;2023-12-20T00:14:20;83.03;;;48.42;;
65581;SDS011;52231;40.090;18.348;2023-12-20T00:16:48;86.70;;;48.35;;
65581;SDS011;52231;40.090;18.348;2023-12-20T00:19:18;83.43;;;48.45;;
65581;SDS011;52231;40.090;18.348;2023-12-20T00:21:46;89.45;;;48.38;;
65581;SDS011;52231;40.090;18.348;2023-12-20T00:24:16;89.60;;;49.90;;
65581;SDS011;52231;40.090;18.348;2023-12-20T00:26:44;89.68;;;48.47;;
65581;SDS011;52231;40.090;18.348;2023-12-20T00:29:13;89.47;;;47.35;;
65581;SDS011;52231;40.090;18.348;2023-12-20T00:31:41;94.93;;;49.60;;
65581;SDS011;52231;40.090;18.348;2023-12-20T00:34:09;94.85;;;50.60;;
65581;SDS011;52231;40.090;18.348;2023-12-20T00:36:38;100.68;;;47.58;;
65581;SDS011;52231;40.090;18.348;2023-12-20T00:39:06;102.55;;;49.55;;
65581;SDS011;52231;40.090;18.348;2023-12-20T00:41:34;98.90;;;46.22;;
65581;SDS011;52231;40.090;18.348;2023-12-20T00:44:03;102.32;;;45.00;;
65581;SDS011;52231;40.090;18.348;2023-12-20T00:46:31;111.55;;;46.80;;
65581;SDS011;52231;40.090;18.348;2023-12-20T00:48:59;102.82;;;42.75;;
65581;SDS011;52231;40.090;18.348;2023-12-20T00:51:28;111.47;;;41.13;;
65581;SDS011;52231;40.090;18.348;2023-12-20T00:53:56;98.72;;;42.00;;
65581;SDS011;52231;40.090;18.348;2023-12-20T00:56:24;93.88;;;42.50;;
65581;SDS011;52231;40.090;18.348;2023-12-20T00:58:52;109.90;;;46.47;;
65581;SDS011;52231;40.090;18.348;2023-12-20T01:01:21;119.07;;;49.47;;
65581;SDS011;52231;40.090;18.348;2023-12-20T01:03:49;107.43;;;47.25;;
65581;SDS011;52231;40.090;18.348;2023-12-20T01:06:19;110.47;;;45.92;;
65581;SDS011;52231;40.090;18.348;2023-12-20T01:08:47;106.07;;;47.83;;
65581;SDS011;52231;40.090;18.348;2023-12-20T01:11:15;89.18;;;40.65;;
65581;SDS011;52231;40.090;18.348;2023-12-20T01:13:43;87.22;;;39.80;;
65581;SDS011;52231;40.090;18.348;2023-12-20T01:16:12;94.75;;;40.10;;
65581;SDS011;52231;40.090;18.348;2023-12-20T01:18:40;88.03;;;38.00;;
65581;SDS011;52231;40.090;18.348;2023-12-20T01:21:12;91.60;;;37.67;;
65581;SDS011;52231;40.090;18.348;2023-12-20T01:23:40;80.20;;;36.65;;
65581;SDS011;52231;40.090;18.348;2023-12-20T01:26:09;79.07;;;38.20;;
65581;SDS011;52231;40.090;18.348;2023-12-20T01:28:37;100.93;;;40.30;;
65581;SDS011;52231;40.090;18.348;2023-12-20T01:31:06;94.72;;;42.45;;
65581;SDS011;52231;40.090;18.348;2023-12-20T01:33:35;82.03;;;40.13;;
65581;SDS011;52231;40.090;18.348;2023-12-20T01:36:04;86.35;;;39.67;;
65581;SDS011;52231;40.090;18.348;2023-12-20T01:38:33;77.82;;;36.65;;
65581;SDS011;52231;40.090;18.348;2023-12-20T01:41:01;76.18;;;37.63;;
65581;SDS011;52231;40.090;18.348;2023-12-20T01:43:29;87.53;;;38.15;;
65581;SDS011;52231;40.090;18.348;2023-12-20T01:45:59;78.78;;;37.17;;
65581;SDS011;52231;40.090;18.348;2023-12-20T01:48:28;78.32;;;34.38;;
65581;SDS011;52231;40.090;18.348;2023-12-20T01:50:56;73.28;;;36.25;;
65581;SDS011;52231;40.090;18.348;2023-12-20T01:53:25;74.72;;;35.35;;
65581;SDS011;52231;40.090;18.348;2023-12-20T01:55:56;72.15;;;34.40;;
65581;SDS011;52231;40.090;18.348;2023-12-20T01:58:26;75.40;;;34.85;;
65581;SDS011;52231;40.090;18.348;2023-12-20T02:00:56;72.03;;;34.92;;
65581;SDS011;52231;40.090;18.348;2023-12-20T02:03:29;69.72;;;34.05;;
65581;SDS011;52231;40.090;18.348;2023-12-20T02:06:15;74.03;;;34.33;;
65581;SDS011;52231;40.090;18.348;2023-12-20T02:08:49;70.35;;;34.35;;
65581;SDS011;52231;40.090;18.348;2023-12-20T02:11:18;77.75;;;37.05;;
65581;SDS011;52231;40.090;18.348;2023-12-20T02:13:46;78.47;;;37.60;;
65581;SDS011;52231;40.090;18.348;2023-12-20T02:16:14;81.05;;;36.63;;
65581;SDS011;52231;40.090;18.348;2023-12-20T02:18:47;86.85;;;36.50;;
65581;SDS011;52231;40.090;18.348;2023-12-20T02:23:44;80.50;;;36.20;;
65581;SDS011;52231;40.090;18.348;2023-12-20T02:26:12;76.60;;;36.00;;
65581;SDS011;52231;40.090;18.348;2023-12-20T02:28:41;89.38;;;41.97;;
65581;SDS011;52231;40.090;18.348;2023-12-20T02:31:09;81.32;;;37.75;;
65581;SDS011;52231;40.090;18.348;2023-12-20T02:33:38;86.15;;;38.55;;
65581;SDS011;52231;40.090;18.348;2023-12-20T02:36:07;88.05;;;38.53;;
65581;SDS011;52231;40.090;18.348;2023-12-20T02:38:35;86.40;;;37.88;;
65581;SDS011;52231;40.090;18.348;2023-12-20T02:41:04;88.70;;;37.70;;
65581;SDS011;52231;40.090;18.348;2023-12-20T02:43:32;87.00;;;38.47;;
65581;SDS011;52231;40.090;18.348;2023-12-20T02:46:00;85.90;;;39.72;;
65581;SDS011;52231;40.090;18.348;2023-12-20T02:48:31;88.50;;;38.35;;
65581;SDS011;52231;40.090;18.348;2023-12-20T02:51:06;101.13;;;37.72;;
65581;SDS011;52231;40.090;18.348;2023-12-20T02:53:34;104.22;;;37.03;;
65581;SDS011;52231;40.090;18.348;2023-12-20T02:56:03;78.03;;;35.45;;
65581;SDS011;52231;40.090;18.348;2023-12-20T02:58:31;85.45;;;35.90;;
65581;SDS011;52231;40.090;18.348;2023-12-20T03:01:00;89.13;;;37.13;;
65581;SDS011;52231;40.090;18.348;2023-12-20T03:03:28;100.78;;;37.25;;
65581;SDS011;52231;40.090;18.348;2023-12-20T03:05:57;93.85;;;35.78;;
65581;SDS011;52231;40.090;18.348;2023-12-20T03:08:26;91.05;;;37.35;;
65581;SDS011;52231;40.090;18.348;2023-12-20T03:10:56;87.80;;;37.15;;
65581;SDS011;52231;40.090;18.348;2023-12-20T03:13:44;93.63;;;40.03;;
65581;SDS011;52231;40.090;18.348;2023-12-20T03:16:13;100.03;;;41.45;;
65581;SDS011;52231;40.090;18.348;2023-12-20T03:18:43;93.22;;;36.90;;
65581;SDS011;52231;40.090;18.348;2023-12-20T03:21:12;90.10;;;37.88;;
65581;SDS011;52231;40.090;18.348;2023-12-20T03:23:40;85.22;;;37.83;;
65581;SDS011;52231;40.090;18.348;2023-12-20T03:26:09;79.60;;;36.05;;
65581;SDS011;52231;40.090;18.348;2023-12-20T03:28:37;76.78;;;36.15;;
65581;SDS011;52231;40.090;18.348;2023-12-20T03:31:05;84.95;;;36.70;;
65581;SDS011;52231;40.090;18.348;2023-12-20T03:33:34;85.90;;;35.38;;
65581;SDS011;52231;40.090;18.348;2023-12-20T03:36:02;90.10;;;36.03;;
65581;SDS011;52231;40.090;18.348;2023-12-20T03:38:30;91.68;;;35.28;;
65581;SDS011;52231;40.090;18.348;2023-12-20T03:40:59;92.97;;;35.50;;
65581;SDS011;52231;40.090;18.348;2023-12-20T03:43:27;88.97;;;38.10;;
65581;SDS011;52231;40.090;18.348;2023-12-20T03:46:00;91.03;;;35.13;;
65581;SDS011;52231;40.090;18.348;2023-12-20T03:49:39;98.05;;;34.30;;
65581;SDS011;52231;40.090;18.348;2023-12-20T03:52:07;92.65;;;34.25;;
65581;SDS011;52231;40.090;18.348;2023-12-20T03:54:35;100.75;;;38.05;;
65581;SDS011;52231;40.090;18.348;2023-12-20T03:57:03;148.05;;;40.72;;
65581;SDS011;52231;40.090;18.348;2023-12-20T03:59:35;93.00;;;37.72;;
65581;SDS011;52231;40.090;18.348;2023-12-20T04:02:04;141.30;;;43.25;;
65581;SDS011;52231;40.090;18.348;2023-12-20T04:04:32;119.68;;;41.28;;
65581;SDS011;52231;40.090;18.348;2023-12-20T04:07:01;105.75;;;39.63;;
65581;SDS011;52231;40.090;18.348;2023-12-20T04:09:29;111.70;;;39.22;;
65581;SDS011;52231;40.090;18.348;2023-12-20T04:11:57;107.60;;;38.25;;
65581;SDS011;52231;40.090;18.348;2023-12-20T04:14:25;103.47;;;37.88;;
65581;SDS011;52231;40.090;18.348;2023-12-20T04:16:54;96.82;;;35.17;;
65581;SDS011;52231;40.090;18.348;2023-12-20T04:19:23;95.60;;;34.92;;
65581;SDS011;52231;40.090;18.348;2023-12-20T04:21:51;89.20;;;33.65;;
65581;SDS011;52231;40.090;18.348;2023-12-20T04:24:19;97.68;;;33.78;;
65581;SDS011;52231;40.090;18.348;2023-12-20T04:26:48;107.35;;;33.42;;
65581;SDS011;52231;40.090;18.348;2023-12-20T04:29:16;117.88;;;35.28;;
65581;SDS011;52231;40.090;18.348;2023-12-20T04:31:44;101.72;;;35.45;;
65581;SDS011;52231;40.090;18.348;2023-12-20T04:34:12;112.30;;;34.22;;
65581;SDS011;52231;40.090;18.348;2023-12-20T04:36:40;100.07;;;34.95;;
65581;SDS011;52231;40.090;18.348;2023-12-20T04:39:09;126.07;;;34.08;;
65581;SDS011;52231;40.090;18.348;2023-12-20T04:41:39;122.18;;;34.80;;
65581;SDS011;52231;40.090;18.348;2023-12-20T04:44:07;111.75;;;36.58;;
65581;SDS011;52231;40.090;18.348;2023-12-20T04:46:36;102.85;;;33.30;;
65581;SDS011;52231;40.090;18.348;2023-12-20T04:49:04;90.15;;;33.13;;
65581;SDS011;52231;40.090;18.348;2023-12-20T04:51:35;88.88;;;33.90;;
65581;SDS011;52231;40.090;18.348;2023-12-20T04:54:03;94.72;;;34.08;;
65581;SDS011;52231;40.090;18.348;2023-12-20T04:56:31;80.32;;;31.63;;
65581;SDS011;52231;40.090;18.348;2023-12-20T04:58:59;77.72;;;32.85;;
65581;SDS011;52231;40.090;18.348;2023-12-20T05:01:27;85.88;;;31.15;;
65581;SDS011;52231;40.090;18.348;2023-12-20T05:03:56;101.07;;;33.40;;
65581;SDS011;52231;40.090;18.348;2023-12-20T05:06:24;101.68;;;30.48;;
65581;SDS011;52231;40.090;18.348;2023-12-20T05:08:52;98.28;;;30.85;;
65581;SDS011;52231;40.090;18.348;2023-12-20T05:11:20;116.40;;;31.17;;
65581;SDS011;52231;40.090;18.348;2023-12-20T05:13:48;101.07;;;32.25;;
65581;SDS011;52231;40.090;18.348;2023-12-20T05:16:16;99.75;;;30.90;;
65581;SDS011;52231;40.090;18.348;2023-12-20T05:18:45;114.88;;;29.83;;
65581;SDS011;52231;40.090;18.348;2023-12-20T05:21:15;122.68;;;30.17;;
65581;SDS011;52231;40.090;18.348;2023-12-20T05:23:45;114.35;;;30.65;;
65581;SDS011;52231;40.090;18.348;2023-12-20T05:26:13;114.68;;;27.48;;
65581;SDS011;52231;40.090;18.348;2023-12-20T05:28:41;94.40;;;28.63;;
65581;SDS011;52231;40.090;18.348;2023-12-20T05:31:10;93.30;;;30.52;;
65581;SDS011;52231;40.090;18.348;2023-12-20T05:33:38;90.68;;;28.02;;
65581;SDS011;52231;40.090;18.348;2023-12-20T05:36:07;91.47;;;26.90;;
65581;SDS011;52231;40.090;18.348;2023-12-20T05:38:38;103.90;;;29.83;;
65581;SDS011;52231;40.090;18.348;2023-12-20T05:41:06;79.40;;;27.50;;
65581;SDS011;52231;40.090;18.348;2023-12-20T05:43:35;79.10;;;27.23;;
65581;SDS011;52231;40.090;18.348;2023-12-20T05:46:03;89.47;;;28.35;;
65581;SDS011;52231;40.090;18.348;2023-12-20T05:48:31;85.05;;;27.58;;
65581;SDS011;52231;40.090;18.348;2023-12-20T05:50:59;103.95;;;32.75;;
65581;SDS011;52231;40.090;18.348;2023-12-20T05:53:27;92.15;;;28.95;;
65581;SDS011;52231;40.090;18.348;2023-12-20T05:55:55;70.60;;;23.60;;
65581;SDS011;52231;40.090;18.348;2023-12-20T05:58:23;78.90;;;22.42;;
65581;SDS011;52231;40.090;18.348;2023-12-20T06:00:51;69.82;;;20.92;;
65581;SDS011;52231;40.090;18.348;2023-12-20T06:03:20;74.65;;;20.92;;
65581;SDS011;52231;40.090;18.348;2023-12-20T06:05:48;60.50;;;20.98;;
65581;SDS011;52231;40.090;18.348;2023-12-20T06:08:17;64.13;;;21.33;;
65581;SDS011;52231;40.090;18.348;2023-12-20T06:10:45;76.72;;;22.35;;
65581;SDS011;52231;40.090;18.348;2023-12-20T06:13:13;92.13;;;25.88;;
65581;SDS011;52231;40.090;18.348;2023-12-20T06:15:42;85.65;;;25.55;;
65581;SDS011;52231;40.090;18.348;2023-12-20T06:18:10;86.72;;;27.13;;
65581;SDS011;52231;40.090;18.348;2023-12-20T06:20:39;63.78;;;24.95;;
65581;SDS011;52231;40.090;18.348;2023-12-20T06:23:07;81.85;;;26.50;;
65581;SDS011;52231;40.090;18.348;2023-12-20T06:25:35;74.15;;;26.75;;
65581;SDS011;52231;40.090;18.348;2023-12-20T06:28:03;85.43;;;26.73;;
65581;SDS011;52231;40.090;18.348;2023-12-20T06:30:32;55.22;;;24.50;;
65581;SDS011;52231;40.090;18.348;2023-12-20T06:33:00;75.68;;;23.75;;
65581;SDS011;52231;40.090;18.348;2023-12-20T06:35:28;80.53;;;25.23;;
65581;SDS011;52231;40.090;18.348;2023-12-20T06:37:57;85.38;;;23.67;;
65581;SDS011;52231;40.090;18.348;2023-12-20T06:40:25;71.30;;;23.88;;
65581;SDS011;52231;40.090;18.348;2023-12-20T06:42:53;66.50;;;23.90;;
65581;SDS011;52231;40.090;18.348;2023-12-20T06:45:24;86.47;;;23.33;;
65581;SDS011;52231;40.090;18.348;2023-12-20T06:47:53;65.88;;;21.98;;
65581;SDS011;52231;40.090;18.348;2023-12-20T06:50:22;73.13;;;20.50;;
65581;SDS011;52231;40.090;18.348;2023-12-20T06:52:52;95.13;;;28.17;;
65581;SDS011;52231;40.090;18.348;2023-12-20T06:55:20;76.45;;;25.92;;
65581;SDS011;52231;40.090;18.348;2023-12-20T06:57:48;55.10;;;22.73;;
65581;SDS011;52231;40.090;18.348;2023-12-20T07:00:17;63.20;;;20.85;;
65581;SDS011;52231;40.090;18.348;2023-12-20T07:02:47;72.47;;;24.42;;
65581;SDS011;52231;40.090;18.348;2023-12-20T07:05:17;75.15;;;22.35;;
65581;SDS011;52231;40.090;18.348;2023-12-20T07:07:47;87.10;;;31.00;;
65581;SDS011;52231;40.090;18.348;2023-12-20T07:10:15;105.82;;;38.05;;
65581;SDS011;52231;40.090;18.348;2023-12-20T07:12:43;107.93;;;38.50;;
65581;SDS011;52231;40.090;18.348;2023-12-20T07:15:12;103.95;;;31.45;;
65581;SDS011;52231;40.090;18.348;2023-12-20T07:17:40;94.85;;;27.75;;
65581;SDS011;52231;40.090;18.348;2023-12-20T07:20:08;72.95;;;25.83;;
65581;SDS011;52231;40.090;18.348;2023-12-20T07:22:38;109.15;;;25.92;;
65581;SDS011;52231;40.090;18.348;2023-12-20T07:25:06;75.68;;;28.23;;
65581;SDS011;52231;40.090;18.348;2023-12-20T07:27:35;235.75;;;64.38;;
65581;SDS011;52231;40.090;18.348;2023-12-20T07:30:03;190.98;;;54.15;;
65581;SDS011;52231;40.090;18.348;2023-12-20T07:32:31;126.45;;;40.40;;
65581;SDS011;52231;40.090;18.348;2023-12-20T07:35:00;89.72;;;30.00;;
65581;SDS011;52231;40.090;18.348;2023-12-20T07:37:28;84.78;;;26.50;;
65581;SDS011;52231;40.090;18.348;2023-12-20T07:39:56;89.15;;;32.05;;
65581;SDS011;52231;40.090;18.348;2023-12-20T07:42:24;75.65;;;26.70;;
65581;SDS011;52231;40.090;18.348;2023-12-20T07:44:53;87.15;;;24.80;;
65581;SDS011;52231;40.090;18.348;2023-12-20T07:47:21;52.75;;;17.38;;
65581;SDS011;52231;40.090;18.348;2023-12-20T07:49:49;50.85;;;16.17;;
65581;SDS011;52231;40.090;18.348;2023-12-20T07:52:19;48.22;;;15.93;;
65581;SDS011;52231;40.090;18.348;2023-12-20T07:54:49;51.70;;;13.98;;
65581;SDS011;52231;40.090;18.348;2023-12-20T07:57:17;50.75;;;12.23;;
65581;SDS011;52231;40.090;18.348;2023-12-20T07:59:45;54.95;;;15.25;;
65581;SDS011;52231;40.090;18.348;2023-12-20T08:02:14;30.80;;;9.98;;
65581;SDS011;52231;40.090;18.348;2023-12-20T08:04:42;65.80;;;10.80;;
65581;SDS011;52231;40.090;18.348;2023-12-20T08:07:11;26.55;;;8.23;;
65581;SDS011;52231;40.090;18.348;2023-12-20T08:09:39;56.65;;;10.05;;
65581;SDS011;52231;40.090;18.348;2023-12-20T08:12:07;40.47;;;11.10;;
65581;SDS011;52231;40.090;18.348;2023-12-20T08:14:36;59.55;;;10.45;;
65581;SDS011;52231;40.090;18.348;2023-12-20T08:17:05;90.88;;;11.90;;
65581;SDS011;52231;40.090;18.348;2023-12-20T08:19:33;50.70;;;8.23;;
65581;SDS011;52231;40.090;18.348;2023-12-20T08:22:01;50.53;;;10.02;;
65581;SDS011;52231;40.090;18.348;2023-12-20T08:24:29;39.67;;;12.27;;
65581;SDS011;52231;40.090;18.348;2023-12-20T08:26:58;68.57;;;14.68;;
65581;SDS011;52231;40.090;18.348;2023-12-20T08:29:26;70.40;;;12.25;;
65581;SDS011;52231;40.090;18.348;2023-12-20T08:31:55;65.43;;;9.88;;
65581;SDS011;52231;40.090;18.348;2023-12-20T08:34:23;48.90;;;7.18;;
65581;SDS011;52231;40.090;18.348;2023-12-20T08:39:49;44.53;;;7.43;;
65581;SDS011;52231;40.090;18.348;2023-12-20T08:42:20;56.10;;;10.60;;
65581;SDS011;52231;40.090;18.348;2023-12-20T08:44:48;45.00;;;9.40;;
65581;SDS011;52231;40.090;18.348;2023-12-20T08:47:17;31.98;;;8.50;;
65581;SDS011;52231;40.090;18.348;2023-12-20T08:49:46;32.72;;;8.13;;
65581;SDS011;52231;40.090;18.348;2023-12-20T08:52:14;36.00;;;10.95;;
65581;SDS011;52231;40.090;18.348;2023-12-20T08:54:42;35.78;;;10.35;;
65581;SDS011;52231;40.090;18.348;2023-12-20T08:57:11;29.98;;;10.00;;
65581;SDS011;52231;40.090;18.348;2023-12-20T08:59:39;30.63;;;11.25;;
65581;SDS011;52231;40.090;18.348;2023-12-20T09:02:07;40.15;;;18.63;;
65581;SDS011;52231;40.090;18.348;2023-12-20T09:04:35;29.00;;;13.75;;
65581;SDS011;52231;40.090;18.348;2023-12-20T09:07:03;29.67;;;16.45;;
65581;SDS011;52231;40.090;18.348;2023-12-20T09:09:31;18.27;;;9.55;;
65581;SDS011;52231;40.090;18.348;2023-12-20T09:11:59;27.17;;;8.85;;
65581;SDS011;52231;40.090;18.348;2023-12-20T09:14:27;19.98;;;7.28;;
65581;SDS011;52231;40.090;18.348;2023-12-20T09:16:55;18.05;;;6.50;;
65581;SDS011;52231;40.090;18.348;2023-12-20T09:21:51;22.13;;;8.90;;
65581;SDS011;52231;40.090;18.348;2023-12-20T09:24:20;22.33;;;8.00;;
65581;SDS011;52231;40.090;18.348;2023-12-20T09:26:48;21.60;;;6.53;;
65581;SDS011;52231;40.090;18.348;2023-12-20T09:29:16;18.58;;;7.88;;
65581;SDS011;52231;40.090;18.348;2023-12-20T09:31:44;19.30;;;8.45;;
65581;SDS011;52231;40.090;18.348;2023-12-20T09:34:14;18.23;;;9.68;;
65581;SDS011;52231;40.090;18.348;2023-12-20T09:36:43;18.77;;;9.38;;
65581;SDS011;52231;40.090;18.348;2023-12-20T09:39:15;21.25;;;10.50;;
65581;SDS011;52231;40.090;18.348;2023-12-20T09:42:01;20.08;;;10.07;;
65581;SDS011;52231;40.090;18.348;2023-12-20T09:44:31;18.27;;;10.38;;
65581;SDS011;52231;40.090;18.348;2023-12-20T09:47:03;18.88;;;10.15;;
65581;SDS011;52231;40.090;18.348;2023-12-20T09:49:35;18.10;;;10.98;;
65581;SDS011;52231;40.090;18.348;2023-12-20T09:52:05;16.52;;;9.48;;
65581;SDS011;52231;40.090;18.348;2023-12-20T09:54:37;18.65;;;10.88;;
65581;SDS011;52231;40.090;18.348;2023-12-20T09:57:05;19.17;;;10.85;;
65581;SDS011;52231;40.090;18.348;2023-12-20T09:59:33;20.63;;;10.57;;
65581;SDS011;52231;40.090;18.348;2023-12-20T10:02:01;19.95;;;11.75;;
65581;SDS011;52231;40.090;18.348;2023-12-20T10:04:35;21.67;;;13.00;;
65581;SDS011;52231;40.090;18.348;2023-12-20T10:07:05;27.52;;;16.40;;
65581;SDS011;52231;40.090;18.348;2023-12-20T10:09:37;30.88;;;18.08;;
65581;SDS011;52231;40.090;18.348;2023-12-20T10:12:06;30.88;;;18.13;;
65581;SDS011;52231;40.090;18.348;2023-12-20T10:14:35;31.00;;;17.33;;
65581;SDS011;52231;40.090;18.348;2023-12-20T10:17:04;24.13;;;12.88;;
65581;SDS011;52231;40.090;18.348;2023-12-20T10:19:32;19.15;;;11.38;;
65581;SDS011;52231;40.090;18.348;2023-12-20T10:22:00;12.05;;;5.70;;
65581;SDS011;52231;40.090;18.348;2023-12-20T10:24:31;8.55;;;3.50;;
65581;SDS011;52231;40.090;18.348;2023-12-20T10:27:07;10.63;;;3.40;;
65581;SDS011;52231;40.090;18.348;2023-12-20T10:29:36;7.22;;;3.60;;
65581;SDS011;52231;40.090;18.348;2023-12-20T10:32:23;12.90;;;4.18;;
65581;SDS011;52231;40.090;18.348;2023-12-20T10:34:54;10.02;;;4.07;;
65581;SDS011;52231;40.090;18.348;2023-12-20T10:37:23;11.13;;;4.45;;
65581;SDS011;52231;40.090;18.348;2023-12-20T10:42:24;9.93;;;3.70;;
65581;SDS011;52231;40.090;18.348;2023-12-20T10:44:54;11.30;;;3.85;;
65581;SDS011;52231;40.090;18.348;2023-12-20T10:47:22;11.38;;;4.40;;
65581;SDS011;52231;40.090;18.348;2023-12-20T10:49:53;11.63;;;4.40;;
65581;SDS011;52231;40.090;18.348;2023-12-20T10:52:23;12.75;;;3.78;;
65581;SDS011;52231;40.090;18.348;2023-12-20T10:54:52;11.48;;;4.70;;
65581;SDS011;52231;40.090;18.348;2023-12-20T10:57:20;9.27;;;3.60;;
65581;SDS011;52231;40.090;18.348;2023-12-20T10:59:50;5.72;;;2.53;;
65581;SDS011;52231;40.090;18.348;2023-12-20T11:02:23;7.82;;;2.80;;
65581;SDS011;52231;40.090;18.348;2023-12-20T11:04:53;6.65;;;3.10;;
65581;SDS011;52231;40.090;18.348;2023-12-20T11:07:33;8.07;;;2.85;;
65581;SDS011;52231;40.090;18.348;2023-12-20T11:10:16;8.77;;;3.65;;
65581;SDS011;52231;40.090;18.348;2023-12-20T11:12:54;11.13;;;3.20;;
65581;SDS011;52231;40.090;18.348;2023-12-20T11:15:31;9.88;;;3.80;;
65581;SDS011;52231;40.090;18.348;2023-12-20T11:17:59;10.32;;;4.47;;
65581;SDS011;52231;40.090;18.348;2023-12-20T11:20:37;18.42;;;8.60;;
65581;SDS011;52231;40.090;18.348;2023-12-20T11:23:11;13.73;;;5.57;;
65581;SDS011;52231;40.090;18.348;2023-12-20T11:25:48;17.55;;;3.72;;
65581;SDS011;52231;40.090;18.348;2023-12-20T11:31:00;11.48;;;3.97;;
65581;SDS011;52231;40.090;18.348;2023-12-20T11:38:38;8.02;;;3.42;;
65581;SDS011;52231;40.090;18.348;2023-12-20T11:41:16;9.68;;;3.95;;
65581;SDS011;52231;40.090;18.348;2023-12-20T11:43:44;8.40;;;3.55;;
65581;SDS011;52231;40.090;18.348;2023-12-20T11:46:12;8.00;;;3.30;;
65581;SDS011;52231;40.090;18.348;2023-12-20T11:48:40;7.47;;;3.30;;
65581;SDS011;52231;40.090;18.348;2023-12-20T11:51:11;10.18;;;3.53;;
65581;SDS011;52231;40.090;18.348;2023-12-20T11:53:40;9.65;;;4.03;;
65581;SDS011;52231;40.090;18.348;2023-12-20T11:56:10;11.85;;;5.32;;
65581;SDS011;52231;40.090;18.348;2023-12-20T11:58:38;10.27;;;4.75;;
65581;SDS011;52231;40.090;18.348;2023-12-20T12:01:06;10.13;;;5.03;;
65581;SDS011;52231;40.090;18.348;2023-12-20T12:03:35;7.85;;;3.70;;
65581;SDS011;52231;40.090;18.348;2023-12-20T12:06:03;10.63;;;3.92;;
65581;SDS011;52231;40.090;18.348;2023-12-20T12:08:32;10.30;;;4.32;;
65581;SDS011;52231;40.090;18.348;2023-12-20T12:11:01;12.02;;;6.15;;
65581;SDS011;52231;40.090;18.348;2023-12-20T12:13:30;10.52;;;4.82;;
65581;SDS011;52231;40.090;18.348;2023-12-20T12:15:58;11.25;;;5.20;;
65581;SDS011;52231;40.090;18.348;2023-12-20T12:18:26;11.13;;;4.93;;
65581;SDS011;52231;40.090;18.348;2023-12-20T12:21:01;9.57;;;4.30;;
65581;SDS011;52231;40.090;18.348;2023-12-20T12:23:52;9.32;;;4.30;;
65581;SDS011;52231;40.090;18.348;2023-12-20T12:26:20;9.27;;;4.10;;
65581;SDS011;52231;40.090;18.348;2023-12-20T12:28:52;9.18;;;4.13;;
65581;SDS011;52231;40.090;18.348;2023-12-20T12:31:20;8.05;;;3.95;;
65581;SDS011;52231;40.090;18.348;2023-12-20T12:33:49;11.23;;;4.03;;
65581;SDS011;52231;40.090;18.348;2023-12-20T12:36:18;8.43;;;3.60;;
65581;SDS011;52231;40.090;18.348;2023-12-20T12:38:46;9.50;;;3.97;;
65581;SDS011;52231;40.090;18.348;2023-12-20T12:41:17;10.98;;;4.07;;
65581;SDS011;52231;40.090;18.348;2023-12-20T12:46:13;8.38;;;3.17;;
65581;SDS011;52231;40.090;18.348;2023-12-20T12:51:10;7.63;;;3.78;;
65581;SDS011;52231;40.090;18.348;2023-12-20T12:53:40;8.10;;;3.50;;
65581;SDS011;52231;40.090;18.348;2023-12-20T12:56:09;9.02;;;3.97;;
65581;SDS011;52231;40.090;18.348;2023-12-20T12:58:37;10.32;;;4.00;;
65581;SDS011;52231;40.090;18.348;2023-12-20T13:01:05;10.02;;;3.63;;
65581;SDS011;52231;40.090;18.348;2023-12-20T13:03:33;18.73;;;8.50;;
65581;SDS011;52231;40.090;18.348;2023-12-20T13:06:02;11.65;;;5.00;;
65581;SDS011;52231;40.090;18.348;2023-12-20T13:08:33;16.20;;;6.00;;
65581;SDS011;52231;40.090;18.348;2023-12-20T13:11:01;8.93;;;3.95;;
65581;SDS011;52231;40.090;18.348;2023-12-20T13:13:31;9.30;;;3.35;;
65581;SDS011;52231;40.090;18.348;2023-12-20T13:15:59;7.93;;;3.45;;
65581;SDS011;52231;40.090;18.348;2023-12-20T13:20:56;8.90;;;2.63;;
65581;SDS011;52231;40.090;18.348;2023-12-20T13:23:24;6.10;;;2.67;;
65581;SDS011;52231;40.090;18.348;2023-12-20T13:25:52;10.27;;;3.20;;
65581;SDS011;52231;40.090;18.348;2023-12-20T13:30:48;6.13;;;2.60;;
65581;SDS011;52231;40.090;18.348;2023-12-20T13:33:17;11.80;;;3.90;;
65581;SDS011;52231;40.090;18.348;2023-12-20T13:38:13;10.93;;;4.45;;
65581;SDS011;52231;40.090;18.348;2023-12-20T13:40:41;14.57;;;5.35;;
65581;SDS011;52231;40.090;18.348;2023-12-20T13:43:09;11.13;;;3.90;;
65581;SDS011;52231;40.090;18.348;2023-12-20T13:45:41;12.52;;;3.78;;
65581;SDS011;52231;40.090;18.348;2023-12-20T13:48:11;8.13;;;3.20;;
65581;SDS011;52231;40.090;18.348;2023-12-20T13:50:39;8.60;;;3.22;;
65581;SDS011;52231;40.090;18.348;2023-12-20T13:53:08;11.35;;;3.85;;
65581;SDS011;52231;40.090;18.348;2023-12-20T13:55:36;10.77;;;3.70;;
65581;SDS011;52231;40.090;18.348;2023-12-20T13:58:04;8.25;;;3.80;;
65581;SDS011;52231;40.090;18.348;2023-12-20T14:00:32;8.63;;;4.10;;
65581;SDS011;52231;40.090;18.348;2023-12-20T14:03:00;9.48;;;4.40;;
65581;SDS011;52231;40.090;18.348;2023-12-20T14:07:57;7.68;;;2.85;;
65581;SDS011;52231;40.090;18.348;2023-12-20T14:10:26;8.02;;;3.03;;
65581;SDS011;52231;40.090;18.348;2023-12-20T14:12:55;9.20;;;3.40;;
65581;SDS011;52231;40.090;18.348;2023-12-20T14:15:26;8.80;;;3.22;;
65581;SDS011;52231;40.090;18.348;2023-12-20T14:17:55;7.90;;;3.00;;
65581;SDS011;52231;40.090;18.348;2023-12-20T14:20:24;8.63;;;2.90;;
65581;SDS011;52231;40.090;18.348;2023-12-20T14:22:52;8.48;;;3.25;;
65581;SDS011;52231;40.090;18.348;2023-12-20T14:25:20;9.82;;;3.80;;
65581;SDS011;52231;40.090;18.348;2023-12-20T14:27:50;8.77;;;3.80;;
65581;SDS011;52231;40.090;18.348;2023-12-20T14:30:18;9.80;;;3.90;;
65581;SDS011;52231;40.090;18.348;2023-12-20T14:32:47;10.70;;;4.90;;
65581;SDS011;52231;40.090;18.348;2023-12-20T14:37:44;20.80;;;8.30;;
65581;SDS011;52231;40.090;18.348;2023-12-20T14:40:12;30.40;;;12.43;;
65581;SDS011;52231;40.090;18.348;2023-12-20T14:42:45;39.28;;;16.23;;
65581;SDS011;52231;40.090;18.348;2023-12-20T14:45:14;55.28;;;22.45;;
65581;SDS011;52231;40.090;18.348;2023-12-20T14:47:46;61.45;;;25.63;;
65581;SDS011;52231;40.090;18.348;2023-12-20T14:50:18;71.50;;;27.88;;
65581;SDS011;52231;40.090;18.348;2023-12-20T14:52:46;78.60;;;30.13;;
65581;SDS011;52231;40.090;18.348;2023-12-20T14:55:15;76.22;;;28.15;;
65581;SDS011;52231;40.090;18.348;2023-12-20T14:57:46;51.75;;;20.05;;
65581;SDS011;52231;40.090;18.348;2023-12-20T15:00:15;38.30;;;15.77;;
65581;SDS011;52231;40.090;18.348;2023-12-20T15:02:49;34.45;;;15.55;;